sensor_id;sensor_type;location;lat;lon;timestamp;pressure;altitude;pressure_sealevel;temperature;humidity
53526;BME280;40551;50.478;19.378;2023-07-20T00:01:39;97173.11;;;16.22;74.94
53526;BME280;40551;50.478;19.378;2023-07-20T00:04:14;97167.05;;;16.20;75.20
53526;BME280;40551;50.478;19.378;2023-07-20T00:06:45;97160.84;;;16.23;74.97
53526;BME280;40551;50.478;19.378;2023-07-20T00:09:17;97150.81;;;16.24;75.20
53526;BME280;40551;50.478;19.378;2023-07-20T00:11:51;97144.85;;;16.26;75.22
53526;BME280;40551;50.478;19.378;2023-07-20T00:14:22;97146.00;;;16.25;75.26
53526;BME280;40551;50.478;19.378;2023-07-20T00:16:51;97140.61;;;16.22;75.12
53526;BME280;40551;50.478;19.378;2023-07-20T00:19:26;97141.02;;;16.18;75.14
53526;BME280;40551;50.478;19.378;2023-07-20T00:21:57;97136.02;;;16.18;75.17
53526;BME280;40551;50.478;19.378;2023-07-20T00:24:27;97135.09;;;16.18;75.20
53526;BME280;40551;50.478;19.378;2023-07-20T00:26:58;97134.67;;;16.17;75.38
53526;BME280;40551;50.478;19.378;2023-07-20T00:29:34;97140.50;;;16.14;75.21
53526;BME280;40551;50.478;19.378;2023-07-20T00:32:07;97139.04;;;16.04;74.95
53526;BME280;40551;50.478;19.378;2023-07-20T00:34:38;97138.33;;;15.94;75.17
53526;BME280;40551;50.478;19.378;2023-07-20T00:37:08;97143.96;;;15.88;75.72
53526;BME280;40551;50.478;19.378;2023-07-20T00:39:41;97148.88;;;15.84;75.90
53526;BME280;40551;50.478;19.378;2023-07-20T00:42:10;97151.34;;;15.81;76.15
53526;BME280;40551;50.478;19.378;2023-07-20T00:44:43;97156.31;;;15.81;76.59
53526;BME280;40551;50.478;19.378;2023-07-20T00:47:14;97163.27;;;15.82;77.06
53526;BME280;40551;50.478;19.378;2023-07-20T00:49:46;97179.36;;;15.85;77.22
53526;BME280;40551;50.478;19.378;2023-07-20T00:52:17;97211.20;;;15.89;77.48
53526;BME280;40551;50.478;19.378;2023-07-20T00:54:50;97227.78;;;15.95;77.39
53526;BME280;40551;50.478;19.378;2023-07-20T00:57:22;97215.08;;;16.04;76.80
53526;BME280;40551;50.478;19.378;2023-07-20T00:59:55;97210.13;;;16.17;76.44
53526;BME280;40551;50.478;19.378;2023-07-20T01:02:25;97238.60;;;16.32;76.29
53526;BME280;40551;50.478;19.378;2023-07-20T01:04:56;97234.99;;;16.44;75.86
53526;BME280;40551;50.478;19.378;2023-07-20T01:07:29;97225.88;;;16.54;75.09
53526;BME280;40551;50.478;19.378;2023-07-20T01:10:05;97239.45;;;16.68;74.80
53526;BME280;40551;50.478;19.378;2023-07-20T01:12:42;97245.11;;;16.79;74.61
53526;BME280;40551;50.478;19.378;2023-07-20T01:15:12;97237.43;;;16.87;74.05
53526;BME280;40551;50.478;19.378;2023-07-20T01:17:42;97231.79;;;16.95;73.77
53526;BME280;40551;50.478;19.378;2023-07-20T01:20:15;97225.62;;;17.02;73.32
53526;BME280;40551;50.478;19.378;2023-07-20T01:26:02;97220.06;;;17.13;73.00
53526;BME280;40551;50.478;19.378;2023-07-20T01:29:01;97218.31;;;17.16;72.88
53526;BME280;40551;50.478;19.378;2023-07-20T01:31:37;97212.98;;;17.16;72.41
53526;BME280;40551;50.478;19.378;2023-07-20T01:34:11;97208.89;;;17.17;72.17
53526;BME280;40551;50.478;19.378;2023-07-20T01:36:43;97202.63;;;17.18;72.20
53526;BME280;40551;50.478;19.378;2023-07-20T01:39:14;97195.97;;;17.19;72.62
53526;BME280;40551;50.478;19.378;2023-07-20T01:41:44;97189.63;;;17.20;72.40
53526;BME280;40551;50.478;19.378;2023-07-20T01:44:17;97191.80;;;17.19;72.74
53526;BME280;40551;50.478;19.378;2023-07-20T01:46:49;97187.27;;;17.17;73.27
53526;BME280;40551;50.478;19.378;2023-07-20T01:49:18;97191.47;;;17.16;73.58
53526;BME280;40551;50.478;19.378;2023-07-20T01:51:50;97197.17;;;17.14;73.74
53526;BME280;40551;50.478;19.378;2023-07-20T01:54:19;97193.84;;;17.09;73.79
53526;BME280;40551;50.478;19.378;2023-07-20T01:56:50;97198.53;;;17.04;74.24
53526;BME280;40551;50.478;19.378;2023-07-20T01:59:22;97198.45;;;16.98;74.26
53526;BME280;40551;50.478;19.378;2023-07-20T02:01:51;97200.19;;;16.91;74.50
53526;BME280;40551;50.478;19.378;2023-07-20T02:04:22;97199.46;;;16.85;75.08
53526;BME280;40551;50.478;19.378;2023-07-20T02:06:52;97208.29;;;16.82;75.24
53526;BME280;40551;50.478;19.378;2023-07-20T02:09:22;97211.02;;;16.77;75.60
53526;BME280;40551;50.478;19.378;2023-07-20T02:11:53;97212.19;;;16.73;75.79
53526;BME280;40551;50.478;19.378;2023-07-20T02:14:25;97207.67;;;16.70;76.03
53526;BME280;40551;50.478;19.378;2023-07-20T02:16:54;97213.81;;;16.65;76.23
53526;BME280;40551;50.478;19.378;2023-07-20T02:19:32;97209.08;;;16.63;76.36
53526;BME280;40551;50.478;19.378;2023-07-20T02:22:04;97215.64;;;16.56;76.49
53526;BME280;40551;50.478;19.378;2023-07-20T02:24:36;97229.02;;;16.53;76.80
53526;BME280;40551;50.478;19.378;2023-07-20T02:27:07;97219.42;;;16.50;77.13
53526;BME280;40551;50.478;19.378;2023-07-20T02:29:38;97218.03;;;16.48;77.19
53526;BME280;40551;50.478;19.378;2023-07-20T02:32:10;97230.66;;;16.47;76.97
53526;BME280;40551;50.478;19.378;2023-07-20T02:34:41;97243.66;;;16.45;76.77
53526;BME280;40551;50.478;19.378;2023-07-20T02:37:11;97239.29;;;16.45;76.76
53526;BME280;40551;50.478;19.378;2023-07-20T02:39:42;97237.91;;;16.43;76.51
53526;BME280;40551;50.478;19.378;2023-07-20T02:42:12;97237.86;;;16.44;76.11
53526;BME280;40551;50.478;19.378;2023-07-20T02:44:43;97243.98;;;16.45;76.06
53526;BME280;40551;50.478;19.378;2023-07-20T02:47:14;97246.73;;;16.44;75.70
53526;BME280;40551;50.478;19.378;2023-07-20T02:49:45;97253.52;;;16.47;75.53
53526;BME280;40551;50.478;19.378;2023-07-20T02:52:16;97263.17;;;16.50;75.37
53526;BME280;40551;50.478;19.378;2023-07-20T02:54:46;97271.77;;;16.53;75.23
53526;BME280;40551;50.478;19.378;2023-07-20T02:57:18;97264.97;;;16.53;74.75
53526;BME280;40551;50.478;19.378;2023-07-20T02:59:48;97270.66;;;16.52;74.43
53526;BME280;40551;50.478;19.378;2023-07-20T03:02:18;97274.05;;;16.54;74.32
53526;BME280;40551;50.478;19.378;2023-07-20T03:04:50;97273.68;;;16.56;74.17
53526;BME280;40551;50.478;19.378;2023-07-20T03:07:21;97279.64;;;16.57;73.84
53526;BME280;40551;50.478;19.378;2023-07-20T03:09:52;97280.77;;;16.58;73.64
53526;BME280;40551;50.478;19.378;2023-07-20T03:12:23;97285.56;;;16.59;73.60
53526;BME280;40551;50.478;19.378;2023-07-20T03:14:55;97294.86;;;16.60;73.50
53526;BME280;40551;50.478;19.378;2023-07-20T03:17:25;97286.10;;;16.60;73.44
53526;BME280;40551;50.478;19.378;2023-07-20T03:19:55;97286.70;;;16.59;72.97
53526;BME280;40551;50.478;19.378;2023-07-20T03:22:26;97288.98;;;16.58;72.75
53526;BME280;40551;50.478;19.378;2023-07-20T03:24:57;97296.98;;;16.57;72.61
53526;BME280;40551;50.478;19.378;2023-07-20T03:27:28;97303.70;;;16.55;72.29
53526;BME280;40551;50.478;19.378;2023-07-20T03:30:00;97316.20;;;16.52;72.17
53526;BME280;40551;50.478;19.378;2023-07-20T03:32:32;97327.67;;;16.48;71.84
53526;BME280;40551;50.478;19.378;2023-07-20T03:35:06;97323.19;;;16.43;71.73
53526;BME280;40551;50.478;19.378;2023-07-20T03:37:38;97319.85;;;16.39;71.74
53526;BME280;40551;50.478;19.378;2023-07-20T03:40:11;97316.19;;;16.36;71.95
53526;BME280;40551;50.478;19.378;2023-07-20T03:42:41;97328.28;;;16.31;71.93
53526;BME280;40551;50.478;19.378;2023-07-20T03:45:13;97325.52;;;16.26;71.81
53526;BME280;40551;50.478;19.378;2023-07-20T03:47:43;97326.08;;;16.22;72.09
53526;BME280;40551;50.478;19.378;2023-07-20T03:50:15;97325.09;;;16.20;72.18
53526;BME280;40551;50.478;19.378;2023-07-20T03:52:46;97327.11;;;16.17;72.33
53526;BME280;40551;50.478;19.378;2023-07-20T03:55:17;97335.31;;;16.15;72.39
53526;BME280;40551;50.478;19.378;2023-07-20T03:57:46;97346.81;;;16.13;72.77
53526;BME280;40551;50.478;19.378;2023-07-20T04:00:17;97348.75;;;16.14;73.10
53526;BME280;40551;50.478;19.378;2023-07-20T04:02:47;97336.90;;;16.10;73.27
53526;BME280;40551;50.478;19.378;2023-07-20T04:05:18;97335.91;;;16.07;73.54
53526;BME280;40551;50.478;19.378;2023-07-20T04:07:52;97353.61;;;16.07;73.70
53526;BME280;40551;50.478;19.378;2023-07-20T04:10:22;97374.55;;;16.07;73.95
53526;BME280;40551;50.478;19.378;2023-07-20T04:12:56;97383.58;;;16.03;74.01
53526;BME280;40551;50.478;19.378;2023-07-20T04:15:27;97392.28;;;15.99;74.30
53526;BME280;40551;50.478;19.378;2023-07-20T04:17:57;97359.02;;;15.93;74.28
53526;BME280;40551;50.478;19.378;2023-07-20T04:20:26;97339.50;;;15.91;74.51
53526;BME280;40551;50.478;19.378;2023-07-20T04:22:56;97362.91;;;15.92;74.67
53526;BME280;40551;50.478;19.378;2023-07-20T04:25:26;97388.84;;;15.93;74.93
53526;BME280;40551;50.478;19.378;2023-07-20T04:27:58;97389.09;;;15.92;75.12
53526;BME280;40551;50.478;19.378;2023-07-20T04:30:29;97394.27;;;15.91;75.20
53526;BME280;40551;50.478;19.378;2023-07-20T04:33:01;97380.48;;;15.89;75.78
53526;BME280;40551;50.478;19.378;2023-07-20T04:35:54;97390.17;;;15.87;75.96
53526;BME280;40551;50.478;19.378;2023-07-20T04:38:33;97377.07;;;15.86;76.21
53526;BME280;40551;50.478;19.378;2023-07-20T04:41:12;97371.19;;;15.78;76.28
53526;BME280;40551;50.478;19.378;2023-07-20T04:43:47;97372.95;;;15.76;76.87
53526;BME280;40551;50.478;19.378;2023-07-20T04:46:22;97373.96;;;15.73;77.37
53526;BME280;40551;50.478;19.378;2023-07-20T04:48:52;97366.34;;;15.68;77.67
53526;BME280;40551;50.478;19.378;2023-07-20T04:51:24;97354.85;;;15.57;77.73
53526;BME280;40551;50.478;19.378;2023-07-20T04:53:57;97359.40;;;15.47;78.25
53526;BME280;40551;50.478;19.378;2023-07-20T04:56:32;97356.19;;;15.43;78.76
53526;BME280;40551;50.478;19.378;2023-07-20T04:59:05;97355.56;;;15.43;79.23
53526;BME280;40551;50.478;19.378;2023-07-20T05:01:35;97360.61;;;15.49;79.41
53526;BME280;40551;50.478;19.378;2023-07-20T05:04:06;97365.89;;;15.57;79.67
53526;BME280;40551;50.478;19.378;2023-07-20T05:06:39;97365.13;;;15.65;79.97
53526;BME280;40551;50.478;19.378;2023-07-20T05:09:09;97361.89;;;15.70;80.02
53526;BME280;40551;50.478;19.378;2023-07-20T05:11:38;97349.89;;;15.73;80.19
53526;BME280;40551;50.478;19.378;2023-07-20T05:14:09;97345.00;;;15.71;79.95
53526;BME280;40551;50.478;19.378;2023-07-20T05:16:39;97352.15;;;15.68;80.24
53526;BME280;40551;50.478;19.378;2023-07-20T05:19:10;97352.73;;;15.70;80.54
53526;BME280;40551;50.478;19.378;2023-07-20T05:21:40;97359.54;;;15.72;80.69
53526;BME280;40551;50.478;19.378;2023-07-20T05:24:13;97361.34;;;15.78;80.84
53526;BME280;40551;50.478;19.378;2023-07-20T05:26:43;97370.09;;;15.83;80.69
53526;BME280;40551;50.478;19.378;2023-07-20T05:29:14;97366.09;;;15.88;80.90
53526;BME280;40551;50.478;19.378;2023-07-20T05:31:44;97367.41;;;15.93;80.80
53526;BME280;40551;50.478;19.378;2023-07-20T05:34:13;97364.48;;;16.01;80.87
53526;BME280;40551;50.478;19.378;2023-07-20T05:36:43;97361.89;;;16.06;80.50
53526;BME280;40551;50.478;19.378;2023-07-20T05:39:14;97358.08;;;16.10;80.27
53526;BME280;40551;50.478;19.378;2023-07-20T05:41:47;97354.42;;;16.14;80.59
53526;BME280;40551;50.478;19.378;2023-07-20T05:44:17;97354.50;;;16.21;80.77
53526;BME280;40551;50.478;19.378;2023-07-20T05:46:48;97349.83;;;16.30;81.03
53526;BME280;40551;50.478;19.378;2023-07-20T05:49:27;97350.60;;;16.54;81.62
53526;BME280;40551;50.478;19.378;2023-07-20T05:51:58;97354.34;;;17.01;81.73
53526;BME280;40551;50.478;19.378;2023-07-20T05:54:30;97351.33;;;17.65;81.79
53526;BME280;40551;50.478;19.378;2023-07-20T05:57:00;97349.09;;;18.67;81.69
53526;BME280;40551;50.478;19.378;2023-07-20T05:59:30;97352.06;;;19.89;80.72
53526;BME280;40551;50.478;19.378;2023-07-20T06:02:01;97353.16;;;20.98;77.57
53526;BME280;40551;50.478;19.378;2023-07-20T06:04:30;97360.16;;;21.54;74.02
53526;BME280;40551;50.478;19.378;2023-07-20T06:07:01;97367.75;;;21.86;72.18
53526;BME280;40551;50.478;19.378;2023-07-20T06:09:32;97370.27;;;22.41;71.79
53526;BME280;40551;50.478;19.378;2023-07-20T06:12:05;97367.87;;;22.88;70.13
53526;BME280;40551;50.478;19.378;2023-07-20T06:14:35;97374.95;;;23.00;68.50
53526;BME280;40551;50.478;19.378;2023-07-20T06:17:06;97387.83;;;23.02;67.50
53526;BME280;40551;50.478;19.378;2023-07-20T06:19:36;97388.66;;;22.97;66.80
53526;BME280;40551;50.478;19.378;2023-07-20T06:22:08;97387.30;;;22.85;66.52
53526;BME280;40551;50.478;19.378;2023-07-20T06:24:39;97390.21;;;22.96;66.64
53526;BME280;40551;50.478;19.378;2023-07-20T06:27:11;97390.30;;;23.12;65.89
53526;BME280;40551;50.478;19.378;2023-07-20T06:29:42;97400.75;;;23.03;65.34
53526;BME280;40551;50.478;19.378;2023-07-20T06:32:12;97402.19;;;22.82;65.10
53526;BME280;40551;50.478;19.378;2023-07-20T06:34:42;97403.73;;;22.63;65.25
53526;BME280;40551;50.478;19.378;2023-07-20T06:37:12;97401.96;;;22.45;64.87
53526;BME280;40551;50.478;19.378;2023-07-20T06:39:43;97402.35;;;22.32;64.71
53526;BME280;40551;50.478;19.378;2023-07-20T06:42:15;97400.91;;;22.16;64.95
53526;BME280;40551;50.478;19.378;2023-07-20T06:44:46;97406.31;;;22.09;64.75
53526;BME280;40551;50.478;19.378;2023-07-20T06:47:16;97411.04;;;22.20;65.00
53526;BME280;40551;50.478;19.378;2023-07-20T06:49:48;97408.86;;;22.67;65.11
53526;BME280;40551;50.478;19.378;2023-07-20T06:52:18;97411.05;;;22.95;64.44
53526;BME280;40551;50.478;19.378;2023-07-20T06:54:48;97406.80;;;22.95;63.38
53526;BME280;40551;50.478;19.378;2023-07-20T06:57:17;97398.46;;;22.83;63.48
53526;BME280;40551;50.478;19.378;2023-07-20T06:59:49;97398.71;;;22.77;63.40
53526;BME280;40551;50.478;19.378;2023-07-20T07:02:22;97401.08;;;22.67;63.39
53526;BME280;40551;50.478;19.378;2023-07-20T07:04:57;97402.21;;;22.48;63.34
53526;BME280;40551;50.478;19.378;2023-07-20T07:07:49;97405.39;;;22.31;63.60
53526;BME280;40551;50.478;19.378;2023-07-20T07:10:22;97400.94;;;22.24;64.10
53526;BME280;40551;50.478;19.378;2023-07-20T07:12:52;97398.34;;;22.57;64.30
53526;BME280;40551;50.478;19.378;2023-07-20T07:15:23;97400.30;;;23.17;64.10
53526;BME280;40551;50.478;19.378;2023-07-20T07:17:55;97400.90;;;23.76;63.13
53526;BME280;40551;50.478;19.378;2023-07-20T07:20:28;97404.49;;;24.18;62.35
53526;BME280;40551;50.478;19.378;2023-07-20T07:22:59;97402.20;;;24.47;61.11
53526;BME280;40551;50.478;19.378;2023-07-20T07:25:29;97403.80;;;24.63;59.95
53526;BME280;40551;50.478;19.378;2023-07-20T07:27:58;97405.75;;;24.60;58.95
53526;BME280;40551;50.478;19.378;2023-07-20T07:30:28;97407.96;;;24.64;58.59
53526;BME280;40551;50.478;19.378;2023-07-20T07:33:01;97405.00;;;24.65;58.21
53526;BME280;40551;50.478;19.378;2023-07-20T07:35:34;97399.43;;;24.65;58.61
53526;BME280;40551;50.478;19.378;2023-07-20T07:38:08;97402.08;;;24.70;58.80
53526;BME280;40551;50.478;19.378;2023-07-20T07:41:01;97408.20;;;24.75;58.73
53526;BME280;40551;50.478;19.378;2023-07-20T07:43:37;97414.33;;;24.71;58.28
53526;BME280;40551;50.478;19.378;2023-07-20T07:46:07;97415.27;;;24.67;58.06
53526;BME280;40551;50.478;19.378;2023-07-20T07:48:44;97420.50;;;24.60;58.13
53526;BME280;40551;50.478;19.378;2023-07-20T07:51:13;97424.42;;;24.44;57.40
53526;BME280;40551;50.478;19.378;2023-07-20T07:53:44;97423.49;;;24.21;57.12
53526;BME280;40551;50.478;19.378;2023-07-20T07:56:16;97420.56;;;23.96;56.79
53526;BME280;40551;50.478;19.378;2023-07-20T07:58:50;97418.23;;;23.79;57.44
53526;BME280;40551;50.478;19.378;2023-07-20T08:01:21;97416.81;;;23.68;57.42
53526;BME280;40551;50.478;19.378;2023-07-20T08:03:57;97419.75;;;23.51;57.53
53526;BME280;40551;50.478;19.378;2023-07-20T08:06:29;97415.27;;;23.41;57.59
53526;BME280;40551;50.478;19.378;2023-07-20T08:09:03;97418.33;;;23.35;57.97
53526;BME280;40551;50.478;19.378;2023-07-20T08:11:39;97422.92;;;23.32;58.14
53526;BME280;40551;50.478;19.378;2023-07-20T08:14:11;97419.53;;;23.37;58.52
53526;BME280;40551;50.478;19.378;2023-07-20T08:16:41;97422.73;;;23.37;58.38
53526;BME280;40551;50.478;19.378;2023-07-20T08:19:12;97420.46;;;23.40;58.38
53526;BME280;40551;50.478;19.378;2023-07-20T08:21:43;97422.73;;;23.41;58.55
53526;BME280;40551;50.478;19.378;2023-07-20T08:24:16;97426.09;;;23.43;58.77
53526;BME280;40551;50.478;19.378;2023-07-20T08:26:46;97427.30;;;23.47;57.99
53526;BME280;40551;50.478;19.378;2023-07-20T08:29:17;97428.98;;;23.38;57.44
53526;BME280;40551;50.478;19.378;2023-07-20T08:31:47;97432.38;;;23.27;58.03
53526;BME280;40551;50.478;19.378;2023-07-20T08:34:20;97430.75;;;23.12;57.63
53526;BME280;40551;50.478;19.378;2023-07-20T08:37:02;97437.69;;;22.96;58.00
53526;BME280;40551;50.478;19.378;2023-07-20T08:39:33;97435.48;;;22.96;58.56
53526;BME280;40551;50.478;19.378;2023-07-20T08:42:06;97429.95;;;22.99;58.05
53526;BME280;40551;50.478;19.378;2023-07-20T08:44:37;97433.94;;;23.03;58.40
53526;BME280;40551;50.478;19.378;2023-07-20T08:47:10;97441.21;;;23.00;58.39
53526;BME280;40551;50.478;19.378;2023-07-20T08:49:42;97437.98;;;22.89;58.30
53526;BME280;40551;50.478;19.378;2023-07-20T08:52:14;97444.32;;;22.74;58.41
53526;BME280;40551;50.478;19.378;2023-07-20T08:54:46;97443.77;;;22.59;58.34
53526;BME280;40551;50.478;19.378;2023-07-20T08:57:19;97441.81;;;22.37;58.11
53526;BME280;40551;50.478;19.378;2023-07-20T08:59:57;97448.23;;;22.19;58.59
53526;BME280;40551;50.478;19.378;2023-07-20T09:02:28;97452.27;;;22.08;59.12
53526;BME280;40551;50.478;19.378;2023-07-20T09:04:59;97448.23;;;21.99;59.22
53526;BME280;40551;50.478;19.378;2023-07-20T09:07:32;97452.05;;;21.91;59.25
53526;BME280;40551;50.478;19.378;2023-07-20T09:10:09;97456.86;;;21.82;59.24
53526;BME280;40551;50.478;19.378;2023-07-20T09:12:40;97460.28;;;21.71;59.19
53526;BME280;40551;50.478;19.378;2023-07-20T09:15:14;97459.59;;;21.61;59.45
53526;BME280;40551;50.478;19.378;2023-07-20T09:17:47;97460.52;;;21.62;59.78
53526;BME280;40551;50.478;19.378;2023-07-20T09:20:19;97458.17;;;21.65;60.08
53526;BME280;40551;50.478;19.378;2023-07-20T09:22:52;97451.91;;;21.73;59.82
53526;BME280;40551;50.478;19.378;2023-07-20T09:25:23;97455.73;;;21.80;59.57
53526;BME280;40551;50.478;19.378;2023-07-20T09:28:04;97458.41;;;21.86;59.73
53526;BME280;40551;50.478;19.378;2023-07-20T09:30:35;97460.20;;;21.90;59.42
53526;BME280;40551;50.478;19.378;2023-07-20T09:33:19;97464.86;;;21.94;59.99
53526;BME280;40551;50.478;19.378;2023-07-20T09:35:54;97465.17;;;22.00;59.47
53526;BME280;40551;50.478;19.378;2023-07-20T09:38:51;97468.46;;;22.02;59.27
53526;BME280;40551;50.478;19.378;2023-07-20T09:41:26;97469.13;;;22.05;59.13
53526;BME280;40551;50.478;19.378;2023-07-20T09:44:01;97465.71;;;22.04;59.00
53526;BME280;40551;50.478;19.378;2023-07-20T09:46:51;97471.24;;;22.06;59.30
53526;BME280;40551;50.478;19.378;2023-07-20T09:49:25;97469.46;;;22.09;58.88
53526;BME280;40551;50.478;19.378;2023-07-20T09:52:09;97466.19;;;22.27;59.42
53526;BME280;40551;50.478;19.378;2023-07-20T09:54:40;97467.45;;;22.43;59.29
53526;BME280;40551;50.478;19.378;2023-07-20T09:57:12;97466.17;;;22.54;58.68
53526;BME280;40551;50.478;19.378;2023-07-20T09:59:42;97466.77;;;22.60;57.89
53526;BME280;40551;50.478;19.378;2023-07-20T10:02:27;97465.19;;;22.70;58.37
53526;BME280;40551;50.478;19.378;2023-07-20T10:05:03;97466.68;;;22.80;57.73
53526;BME280;40551;50.478;19.378;2023-07-20T10:07:38;97465.88;;;22.86;57.02
53526;BME280;40551;50.478;19.378;2023-07-20T10:10:13;97464.55;;;22.96;56.93
53526;BME280;40551;50.478;19.378;2023-07-20T10:12:47;97467.84;;;23.05;56.33
53526;BME280;40551;50.478;19.378;2023-07-20T10:15:23;97464.10;;;23.12;55.84
53526;BME280;40551;50.478;19.378;2023-07-20T10:18:05;97465.45;;;23.10;55.00
53526;BME280;40551;50.478;19.378;2023-07-20T10:20:41;97468.19;;;23.06;55.31
53526;BME280;40551;50.478;19.378;2023-07-20T10:23:32;97468.06;;;23.04;55.91
53526;BME280;40551;50.478;19.378;2023-07-20T10:26:04;97466.10;;;23.00;55.34
53526;BME280;40551;50.478;19.378;2023-07-20T10:28:37;97468.42;;;22.96;55.24
53526;BME280;40551;50.478;19.378;2023-07-20T10:31:12;97467.07;;;22.92;55.59
53526;BME280;40551;50.478;19.378;2023-07-20T10:33:43;97468.34;;;23.00;56.02
53526;BME280;40551;50.478;19.378;2023-07-20T10:36:13;97461.20;;;23.09;55.48
53526;BME280;40551;50.478;19.378;2023-07-20T10:38:53;97449.51;;;23.17;55.50
53526;BME280;40551;50.478;19.378;2023-07-20T10:41:29;97452.32;;;23.31;55.55
53526;BME280;40551;50.478;19.378;2023-07-20T10:44:02;97451.30;;;23.45;55.01
53526;BME280;40551;50.478;19.378;2023-07-20T10:46:44;97453.52;;;23.64;54.64
53526;BME280;40551;50.478;19.378;2023-07-20T10:49:16;97456.97;;;23.77;53.44
53526;BME280;40551;50.478;19.378;2023-07-20T10:51:46;97461.83;;;23.75;53.15
53526;BME280;40551;50.478;19.378;2023-07-20T10:57:28;97457.61;;;23.60;52.13
53526;BME280;40551;50.478;19.378;2023-07-20T11:00:25;97455.48;;;23.47;52.16
53526;BME280;40551;50.478;19.378;2023-07-20T11:03:04;97459.71;;;23.25;51.87
53526;BME280;40551;50.478;19.378;2023-07-20T11:05:35;97455.65;;;23.14;52.12
53526;BME280;40551;50.478;19.378;2023-07-20T11:08:12;97455.88;;;23.11;51.86
53526;BME280;40551;50.478;19.378;2023-07-20T11:10:42;97455.77;;;23.09;51.42
53526;BME280;40551;50.478;19.378;2023-07-20T11:13:36;97451.30;;;23.08;51.67
53526;BME280;40551;50.478;19.378;2023-07-20T11:19:18;97441.89;;;23.30;52.64
53526;BME280;40551;50.478;19.378;2023-07-20T11:21:53;97442.09;;;23.47;52.46
53526;BME280;40551;50.478;19.378;2023-07-20T11:24:33;97439.86;;;23.59;52.04
53526;BME280;40551;50.478;19.378;2023-07-20T11:27:06;97434.58;;;23.65;51.90
53526;BME280;40551;50.478;19.378;2023-07-20T11:29:38;97432.73;;;23.68;52.29
53526;BME280;40551;50.478;19.378;2023-07-20T11:32:09;97429.19;;;23.69;51.86
53526;BME280;40551;50.478;19.378;2023-07-20T11:34:39;97423.14;;;23.67;51.90
53526;BME280;40551;50.478;19.378;2023-07-20T11:37:09;97419.60;;;23.75;51.88
53526;BME280;40551;50.478;19.378;2023-07-20T11:39:49;97420.38;;;23.86;51.97
53526;BME280;40551;50.478;19.378;2023-07-20T11:42:24;97423.13;;;23.97;51.91
53526;BME280;40551;50.478;19.378;2023-07-20T11:44:58;97427.04;;;24.04;51.23
53526;BME280;40551;50.478;19.378;2023-07-20T11:47:31;97423.46;;;24.05;50.17
53526;BME280;40551;50.478;19.378;2023-07-20T11:50:07;97418.89;;;24.07;49.92
53526;BME280;40551;50.478;19.378;2023-07-20T11:52:37;97420.20;;;24.09;49.73
53526;BME280;40551;50.478;19.378;2023-07-20T11:55:09;97417.08;;;24.06;49.50
53526;BME280;40551;50.478;19.378;2023-07-20T11:57:40;97414.48;;;24.06;49.39
53526;BME280;40551;50.478;19.378;2023-07-20T12:00:13;97413.84;;;24.03;49.34
53526;BME280;40551;50.478;19.378;2023-07-20T12:02:44;97411.94;;;24.00;49.55
53526;BME280;40551;50.478;19.378;2023-07-20T12:05:15;97408.71;;;23.98;49.92
53526;BME280;40551;50.478;19.378;2023-07-20T12:07:48;97402.30;;;24.02;49.79
53526;BME280;40551;50.478;19.378;2023-07-20T12:10:26;97407.13;;;24.06;49.50
53526;BME280;40551;50.478;19.378;2023-07-20T12:13:02;97408.64;;;24.08;49.72
53526;BME280;40551;50.478;19.378;2023-07-20T12:15:34;97406.95;;;24.08;49.78
53526;BME280;40551;50.478;19.378;2023-07-20T12:18:04;97401.43;;;24.11;49.54
53526;BME280;40551;50.478;19.378;2023-07-20T12:20:37;97400.63;;;24.15;49.42
53526;BME280;40551;50.478;19.378;2023-07-20T12:23:11;97401.27;;;24.29;49.68
53526;BME280;40551;50.478;19.378;2023-07-20T12:25:42;97403.29;;;24.46;49.29
53526;BME280;40551;50.478;19.378;2023-07-20T12:28:17;97402.70;;;24.55;48.57
53526;BME280;40551;50.478;19.378;2023-07-20T12:30:48;97405.11;;;24.62;47.83
53526;BME280;40551;50.478;19.378;2023-07-20T12:33:25;97410.66;;;24.68;47.47
53526;BME280;40551;50.478;19.378;2023-07-20T12:35:56;97420.39;;;24.73;47.01
53526;BME280;40551;50.478;19.378;2023-07-20T12:38:28;97433.84;;;24.68;47.95
53526;BME280;40551;50.478;19.378;2023-07-20T12:41:01;97445.45;;;24.42;48.39
53526;BME280;40551;50.478;19.378;2023-07-20T12:43:31;97449.55;;;24.07;49.33
53526;BME280;40551;50.478;19.378;2023-07-20T12:46:02;97451.09;;;23.60;48.30
53526;BME280;40551;50.478;19.378;2023-07-20T12:48:33;97451.66;;;23.08;48.02
53526;BME280;40551;50.478;19.378;2023-07-20T12:51:05;97466.27;;;22.61;48.73
53526;BME280;40551;50.478;19.378;2023-07-20T12:53:37;97457.63;;;22.34;49.87
53526;BME280;40551;50.478;19.378;2023-07-20T12:56:08;97463.71;;;22.13;50.62
53526;BME280;40551;50.478;19.378;2023-07-20T12:58:42;97454.48;;;22.01;51.04
53526;BME280;40551;50.478;19.378;2023-07-20T13:01:13;97440.35;;;21.84;51.07
53526;BME280;40551;50.478;19.378;2023-07-20T13:03:43;97444.75;;;21.58;51.73
53526;BME280;40551;50.478;19.378;2023-07-20T13:06:19;97442.85;;;21.33;52.40
53526;BME280;40551;50.478;19.378;2023-07-20T13:08:54;97432.48;;;21.19;53.24
53526;BME280;40551;50.478;19.378;2023-07-20T13:11:26;97427.18;;;21.26;53.84
53526;BME280;40551;50.478;19.378;2023-07-20T13:13:57;97427.23;;;21.25;53.84
53526;BME280;40551;50.478;19.378;2023-07-20T13:16:28;97426.63;;;21.18;54.10
53526;BME280;40551;50.478;19.378;2023-07-20T13:18:59;97432.73;;;21.18;54.68
53526;BME280;40551;50.478;19.378;2023-07-20T13:21:31;97426.08;;;21.13;54.50
53526;BME280;40551;50.478;19.378;2023-07-20T13:24:05;97423.10;;;21.15;54.85
53526;BME280;40551;50.478;19.378;2023-07-20T13:26:36;97423.54;;;21.18;55.03
53526;BME280;40551;50.478;19.378;2023-07-20T13:29:06;97422.77;;;21.36;55.10